createdAt,value
2022-08-03T00:02:34.298Z,2.22
2022-08-03T00:05:21.448Z,2.30
2022-08-03T00:08:08.558Z,2.35
2022-08-03T00:10:56.038Z,2.05
2022-08-03T00:13:43.494Z,2.28
2022-08-03T00:16:30.751Z,2.10
2022-08-03T00:19:17.901Z,2.20
2022-08-03T00:22:05.095Z,2.10
2022-08-03T00:24:52.204Z,2.00
2022-08-03T00:27:39.293Z,2.30
2022-08-03T00:30:26.842Z,1.80
2022-08-03T00:33:16.780Z,2.00
2022-08-03T00:36:04.171Z,2.47
2022-08-03T00:38:53.338Z,2.42
2022-08-03T00:41:40.486Z,2.35
2022-08-03T00:44:27.734Z,2.50
2022-08-03T00:47:15.030Z,2.15
2022-08-03T00:50:03.598Z,2.15
2022-08-03T00:52:53.087Z,2.08
2022-08-03T00:55:44.805Z,2.10
2022-08-03T00:58:32.043Z,2.00
2022-08-03T01:01:19.392Z,2.05
2022-08-03T01:04:06.582Z,2.47
2022-08-03T01:07:21.212Z,2.30
2022-08-03T01:10:21.406Z,2.50
2022-08-03T01:14:01.391Z,2.47
2022-08-03T01:16:52.265Z,2.20
2022-08-03T01:19:53.860Z,2.47
2022-08-03T01:23:15.066Z,1.83
2022-08-03T01:26:51.410Z,1.85
2022-08-03T01:29:38.487Z,2.00
2022-08-03T01:32:58.463Z,1.98
2022-08-03T01:35:59.512Z,2.08
2022-08-03T01:38:54.285Z,1.77
2022-08-03T01:41:59.318Z,2.17
2022-08-03T01:44:48.874Z,2.05
2022-08-03T01:47:36.976Z,2.10
2022-08-03T01:50:27.548Z,1.80
2022-08-03T01:53:16.914Z,2.30
2022-08-03T01:56:06.186Z,2.30
2022-08-03T01:58:54.717Z,2.53
2022-08-03T02:02:19.566Z,2.35
2022-08-03T02:04:54.074Z,2.60
2022-08-03T02:07:43.485Z,2.30
2022-08-03T02:10:35.529Z,2.70
2022-08-03T02:13:25.631Z,2.90
2022-08-03T02:16:14.063Z,4.65
2022-08-03T02:19:04.615Z,3.10
2022-08-03T02:21:56.272Z,2.90
2022-08-03T02:24:49.370Z,2.67
2022-08-03T02:27:49.342Z,2.58
2022-08-03T02:30:39.247Z,2.55
2022-08-03T02:33:37.472Z,2.65
2022-08-03T02:36:31.470Z,2.50
2022-08-03T02:39:21.978Z,2.53
2022-08-03T02:42:12.838Z,2.22
2022-08-03T02:45:03.165Z,2.63
2022-08-03T02:47:55.519Z,2.53
2022-08-03T02:50:45.160Z,2.50
2022-08-03T02:53:34.170Z,2.20
2022-08-03T02:56:23.361Z,2.33
2022-08-03T02:59:11.769Z,2.40
2022-08-03T03:02:00.958Z,2.30
2022-08-03T03:05:52.289Z,2.47
2022-08-03T03:07:58.705Z,2.60
2022-08-03T03:10:47.262Z,2.67
2022-08-03T03:13:34.658Z,2.80
2022-08-03T03:16:22.797Z,3.00
2022-08-03T03:19:13.152Z,3.85
2022-08-03T03:22:02.181Z,3.20
2022-08-03T03:24:51.731Z,3.75
2022-08-03T03:27:39.823Z,3.40
2022-08-03T03:30:27.567Z,3.17
2022-08-03T03:33:14.986Z,3.50
2022-08-03T03:36:06.306Z,2.90
2022-08-03T03:38:53.738Z,3.10
2022-08-03T03:41:41.232Z,3.60
2022-08-03T03:44:30.819Z,2.42
2022-08-03T03:47:18.351Z,2.75
2022-08-03T03:50:20.558Z,3.05
2022-08-03T03:53:12.086Z,2.72
2022-08-03T03:56:02.339Z,3.00
2022-08-03T03:58:50.491Z,3.17
2022-08-03T04:01:39.115Z,2.60
2022-08-03T04:04:44.797Z,2.63
2022-08-03T04:08:17.374Z,2.53
2022-08-03T04:11:21.321Z,2.55
2022-08-03T04:14:30.020Z,2.88
2022-08-03T04:17:19.867Z,3.35
2022-08-03T04:20:08.411Z,2.90
2022-08-03T04:22:57.745Z,2.47
2022-08-03T04:25:46.613Z,3.20
2022-08-03T04:28:34.603Z,2.70
2022-08-03T04:31:23.499Z,3.00
2022-08-03T04:34:11.084Z,3.20
2022-08-03T04:37:02.316Z,3.03
2022-08-03T04:39:50.612Z,2.80
2022-08-03T04:42:39.804Z,3.47
2022-08-03T04:45:28.528Z,3.53
2022-08-03T04:48:16.679Z,3.85
2022-08-03T04:54:18.706Z,4.47
2022-08-03T04:57:05.809Z,3.90
2022-08-03T05:00:02.739Z,3.20
2022-08-03T05:02:51.180Z,3.67
2022-08-03T05:05:50.291Z,3.15
2022-08-03T05:08:46.128Z,2.53
2022-08-03T05:11:34.380Z,2.70
2022-08-03T05:14:28.346Z,2.53
2022-08-03T05:17:15.958Z,2.53
2022-08-03T05:20:06.968Z,2.20
2022-08-03T05:22:54.514Z,2.20
2022-08-03T05:25:49.735Z,2.33
2022-08-03T05:28:37.675Z,2.15
2022-08-03T05:31:24.999Z,2.38
2022-08-03T05:34:12.192Z,2.00
2022-08-03T05:36:59.352Z,2.20
2022-08-03T05:39:47.938Z,2.17
2022-08-03T05:42:38.020Z,2.35
2022-08-03T05:45:28.365Z,2.10
2022-08-03T05:51:05.285Z,2.00
2022-08-03T05:53:52.529Z,2.10
2022-08-03T05:56:42.667Z,2.28
2022-08-03T05:59:38.220Z,2.38
2022-08-03T06:02:27.163Z,2.00
2022-08-03T06:05:14.606Z,2.00
2022-08-03T06:08:05.665Z,2.10
2022-08-03T06:10:52.883Z,2.10
2022-08-03T06:13:40.661Z,1.88
2022-08-03T06:16:27.954Z,1.90
2022-08-03T06:19:15.318Z,1.40
2022-08-03T06:22:02.561Z,1.92
2022-08-03T06:24:53.278Z,1.45
2022-08-03T06:30:28.176Z,1.48
2022-08-03T06:33:15.395Z,1.63
2022-08-03T06:36:02.631Z,1.90
2022-08-03T06:38:49.758Z,1.48
2022-08-03T06:41:38.222Z,1.73
2022-08-03T06:44:32.507Z,1.50
2022-08-03T06:47:19.691Z,1.52
2022-08-03T06:50:16.258Z,1.35
2022-08-03T06:53:05.997Z,1.40
2022-08-03T06:55:54.920Z,1.55
2022-08-03T06:58:42.797Z,1.55
2022-08-03T07:01:29.968Z,1.60
2022-08-03T07:04:17.240Z,1.40
2022-08-03T07:07:04.436Z,1.35
2022-08-03T07:09:56.933Z,1.30
2022-08-03T07:12:55.915Z,1.27
2022-08-03T07:15:55.363Z,1.40
2022-08-03T07:18:43.801Z,1.23
2022-08-03T07:21:31.007Z,1.40
2022-08-03T07:24:18.622Z,1.15
2022-08-03T07:27:05.872Z,1.30
2022-08-03T07:29:52.986Z,1.27
2022-08-03T07:32:50.356Z,1.30
2022-08-03T07:35:38.319Z,1.00
2022-08-03T07:38:25.660Z,1.00
2022-08-03T07:41:12.916Z,0.90
2022-08-03T07:44:00.111Z,1.17
2022-08-03T07:46:48.503Z,1.00
2022-08-03T07:49:39.864Z,1.15
2022-08-03T07:52:45.704Z,1.10
2022-08-03T07:55:33.049Z,1.20
2022-08-03T07:58:24.023Z,1.05
2022-08-03T08:01:11.675Z,1.20
2022-08-03T08:04:02.438Z,1.00
2022-08-03T08:06:49.671Z,0.95
2022-08-03T08:09:36.890Z,1.10
2022-08-03T08:12:24.014Z,0.90
2022-08-03T08:15:11.356Z,0.90
2022-08-03T08:18:01.377Z,1.00
2022-08-03T08:20:50.108Z,1.00
2022-08-03T08:23:42.727Z,1.02
2022-08-03T08:26:31.454Z,1.02
2022-08-03T08:29:22.992Z,1.00
2022-08-03T08:32:11.274Z,1.02
2022-08-03T08:34:58.546Z,1.05
2022-08-03T08:37:51.260Z,1.38
2022-08-03T08:40:38.761Z,1.10
2022-08-03T08:43:25.907Z,1.00
2022-08-03T08:46:23.569Z,1.08
2022-08-03T08:49:13.588Z,1.30
2022-08-03T08:52:03.210Z,1.27
2022-08-03T08:54:50.770Z,1.25
2022-08-03T08:57:44.880Z,1.30
2022-08-03T09:00:32.397Z,1.20
2022-08-03T09:03:22.630Z,1.23
2022-08-03T09:06:17.716Z,1.38
2022-08-03T09:09:07.279Z,1.30
2022-08-03T09:12:04.871Z,1.20
2022-08-03T09:15:19.816Z,1.65
2022-08-03T09:18:07.004Z,1.20
2022-08-03T09:21:38.024Z,1.60
2022-08-03T09:24:40.814Z,1.40
2022-08-03T09:27:29.267Z,1.50
2022-08-03T09:30:32.512Z,1.50
2022-08-03T09:33:22.280Z,1.50
2022-08-03T09:36:09.451Z,1.38
2022-08-03T09:39:06.391Z,1.38
2022-08-03T09:42:27.489Z,1.70
2022-08-03T09:45:26.826Z,1.60
2022-08-03T09:48:29.416Z,1.50
2022-08-03T09:52:27.315Z,1.40
2022-08-03T09:54:31.607Z,1.38
2022-08-03T09:57:25.781Z,1.50
2022-08-03T10:00:15.415Z,1.60
2022-08-03T10:03:15.259Z,1.40
2022-08-03T10:06:19.639Z,1.30
2022-08-03T10:09:13.609Z,1.20
2022-08-03T10:12:12.664Z,1.27
2022-08-03T10:14:59.890Z,1.38
2022-08-03T10:17:47.629Z,1.50
2022-08-03T10:20:41.351Z,1.35
2022-08-03T10:23:33.488Z,1.27
2022-08-03T10:26:25.183Z,1.27
2022-08-03T10:29:14.131Z,1.40
2022-08-03T10:32:07.031Z,1.23
2022-08-03T10:35:19.663Z,1.35
2022-08-03T10:38:16.718Z,1.30
2022-08-03T10:41:06.580Z,1.30
2022-08-03T10:44:04.684Z,1.35
2022-08-03T10:46:53.086Z,1.30
2022-08-03T10:49:41.534Z,1.40
2022-08-03T10:52:33.780Z,1.30
2022-08-03T10:55:58.722Z,1.10
2022-08-03T10:58:57.120Z,1.10
2022-08-03T11:02:00.850Z,1.20
2022-08-03T11:05:37.329Z,1.20
2022-08-03T11:08:34.863Z,1.35
2022-08-03T11:11:23.555Z,1.15
2022-08-03T11:14:18.946Z,1.45
2022-08-03T11:17:08.003Z,1.10
2022-08-03T11:20:02.057Z,1.23
2022-08-03T11:22:54.502Z,1.20
2022-08-03T11:26:22.529Z,1.30
2022-08-03T11:29:30.322Z,1.30
2022-08-03T11:32:48.593Z,1.00
2022-08-03T11:36:00.010Z,1.20
2022-08-03T11:39:16.773Z,1.35
2022-08-03T11:42:23.547Z,1.23
2022-08-03T11:45:12.619Z,1.13
2022-08-03T11:48:12.637Z,1.13
2022-08-03T11:51:19.915Z,1.30
2022-08-03T11:54:07.770Z,1.00
2022-08-03T11:56:55.403Z,1.00
2022-08-03T11:59:42.850Z,1.20
2022-08-03T12:02:30.059Z,1.27
2022-08-03T12:05:17.419Z,1.10
2022-08-03T12:08:06.901Z,1.20
2022-08-03T12:10:57.438Z,1.17
2022-08-03T12:14:43.825Z,1.00
2022-08-03T12:16:58.654Z,1.20
2022-08-03T12:19:46.033Z,1.20
2022-08-03T12:22:40.633Z,1.20
2022-08-03T12:25:39.558Z,1.27
2022-08-03T12:28:36.100Z,1.20
2022-08-03T12:31:25.746Z,1.10
2022-08-03T12:34:13.680Z,1.17
2022-08-03T12:37:22.349Z,1.20
2022-08-03T12:40:20.560Z,1.08
2022-08-03T12:43:13.802Z,1.20
2022-08-03T12:46:11.584Z,1.20
2022-08-03T12:49:15.217Z,1.10
2022-08-03T12:52:07.022Z,1.30
2022-08-03T12:55:00.446Z,1.20
2022-08-03T12:57:47.899Z,1.10
2022-08-03T13:00:35.195Z,1.10
2022-08-03T13:03:41.939Z,1.17
2022-08-03T13:06:30.750Z,1.30
2022-08-03T13:09:18.141Z,1.30
2022-08-03T13:12:21.017Z,1.20
2022-08-03T13:15:09.002Z,1.10
2022-08-03T13:17:57.108Z,1.30
2022-08-03T13:20:44.668Z,1.10
2022-08-03T13:23:31.992Z,1.17
2022-08-03T13:26:19.189Z,1.25
2022-08-03T13:29:06.332Z,1.30
2022-08-03T13:31:53.695Z,1.27
2022-08-03T13:34:40.935Z,1.38
2022-08-03T13:37:28.702Z,1.10
2022-08-03T13:40:15.885Z,1.20
2022-08-03T13:43:03.086Z,1.30
2022-08-03T13:45:53.519Z,1.20
2022-08-03T13:48:41.107Z,1.10
2022-08-03T13:51:28.518Z,1.30
2022-08-03T13:54:15.726Z,1.30
2022-08-03T13:58:04.904Z,1.40
2022-08-03T14:00:10.841Z,1.20
2022-08-03T14:03:13.899Z,1.30
2022-08-03T14:06:01.971Z,1.10
2022-08-03T14:08:49.693Z,1.25
2022-08-03T14:12:07.204Z,1.30
2022-08-03T14:14:47.128Z,1.20
2022-08-03T14:17:49.658Z,1.35
2022-08-03T14:20:47.751Z,1.30
2022-08-03T14:23:38.129Z,1.30
2022-08-03T14:26:25.508Z,1.20
2022-08-03T14:29:12.820Z,1.20
2022-08-03T14:32:10.278Z,1.15
2022-08-03T14:34:59.493Z,1.23
2022-08-03T14:37:46.671Z,1.25
2022-08-03T14:40:33.871Z,1.30
2022-08-03T14:43:21.482Z,1.30
2022-08-03T14:46:08.731Z,1.33
2022-08-03T14:50:29.532Z,1.23
2022-08-03T14:52:03.171Z,1.35
2022-08-03T14:54:50.447Z,1.20
2022-08-03T14:57:37.605Z,1.10
2022-08-03T15:00:24.744Z,1.05
2022-08-03T15:03:12.131Z,1.20
2022-08-03T15:06:04.070Z,1.20
2022-08-03T15:09:21.446Z,1.30
2022-08-03T15:11:58.925Z,1.30
2022-08-03T15:14:46.077Z,1.17
2022-08-03T15:17:33.233Z,1.23
2022-08-03T15:20:25.486Z,1.30
2022-08-03T15:23:19.874Z,1.20
2022-08-03T15:26:32.632Z,1.40
2022-08-03T15:30:07.283Z,1.17
2022-08-03T15:32:21.921Z,1.50
2022-08-03T15:35:09.202Z,1.10
2022-08-03T15:37:56.453Z,1.40
2022-08-03T15:40:43.690Z,1.25
2022-08-03T15:43:30.813Z,1.30
2022-08-03T15:46:33.306Z,1.50
2022-08-03T15:49:20.646Z,1.30
2022-08-03T15:52:07.884Z,1.20
2022-08-03T15:54:55.345Z,1.42
2022-08-03T15:59:03.504Z,1.20
2022-08-03T16:00:49.686Z,1.15
2022-08-03T16:03:36.943Z,1.23
2022-08-03T16:06:35.209Z,1.40
2022-08-03T16:09:42.423Z,1.30
2022-08-03T16:12:30.523Z,1.40
2022-08-03T16:15:17.798Z,1.23
2022-08-03T16:18:06.518Z,1.20
2022-08-03T16:20:54.461Z,1.30
2022-08-03T16:23:44.121Z,1.60
2022-08-03T16:26:35.008Z,1.20
2022-08-03T16:29:23.838Z,1.20
2022-08-03T16:32:11.475Z,1.55
2022-08-03T16:34:58.733Z,1.45
2022-08-03T16:37:50.713Z,1.30
2022-08-03T16:40:43.136Z,1.60
2022-08-03T16:43:30.406Z,1.40
2022-08-03T16:46:17.579Z,1.42
2022-08-03T16:49:04.720Z,1.42
2022-08-03T16:51:51.873Z,1.40
2022-08-03T16:54:41.327Z,1.30
2022-08-03T16:57:59.494Z,1.27
2022-08-03T17:00:41.631Z,1.30
2022-08-03T17:03:35.847Z,1.30
2022-08-03T17:06:34.480Z,1.30
2022-08-03T17:09:22.281Z,1.20
2022-08-03T17:12:11.124Z,1.50
2022-08-03T17:14:58.519Z,1.13
2022-08-03T17:18:01.042Z,1.30
2022-08-03T17:20:50.944Z,1.40
2022-08-03T17:23:54.652Z,1.35
2022-08-03T17:28:41.875Z,1.50
2022-08-03T17:30:18.999Z,1.13
2022-08-03T17:33:07.478Z,1.40
2022-08-03T17:36:10.663Z,1.30
2022-08-03T17:38:57.978Z,1.50
2022-08-03T17:41:49.134Z,1.40
2022-08-03T17:44:46.346Z,1.30
2022-08-03T17:47:41.885Z,1.25
2022-08-03T17:50:49.395Z,1.20
2022-08-03T17:53:43.021Z,1.33
2022-08-03T17:56:46.456Z,1.30
2022-08-03T17:59:51.456Z,2.20
2022-08-03T18:03:15.683Z,1.80
2022-08-03T18:06:11.718Z,1.40
2022-08-03T18:12:14.668Z,1.23
2022-08-03T18:15:08.450Z,1.40
2022-08-03T18:18:03.474Z,1.40
2022-08-03T18:21:02.400Z,1.83
2022-08-03T18:23:56.084Z,1.50
2022-08-03T18:26:49.646Z,1.55
2022-08-03T18:29:40.146Z,1.40
2022-08-03T18:32:27.750Z,1.23
2022-08-03T18:35:15.486Z,1.50
2022-08-03T18:38:03.307Z,1.20
2022-08-03T18:40:57.491Z,1.52
2022-08-03T18:43:47.912Z,1.38
2022-08-03T18:47:08.068Z,1.70
2022-08-03T18:50:22.985Z,1.58
2022-08-03T18:53:15.538Z,1.30
2022-08-03T18:56:42.782Z,1.50
2022-08-03T18:59:30.691Z,1.38
2022-08-03T19:02:41.001Z,1.33
2022-08-03T19:05:56.569Z,1.63
2022-08-03T19:09:13.118Z,1.42
2022-08-03T19:12:28.131Z,1.30
2022-08-03T19:15:36.875Z,1.60
2022-08-03T19:18:30.831Z,1.60
2022-08-03T19:21:19.073Z,1.50
2022-08-03T19:24:10.168Z,1.60
2022-08-03T19:26:59.619Z,1.50
2022-08-03T19:29:59.107Z,1.70
2022-08-03T19:32:49.779Z,1.45
2022-08-03T19:35:51.950Z,1.55
2022-08-03T19:38:43.963Z,1.63
2022-08-03T19:41:41.947Z,1.63
2022-08-03T19:44:31.636Z,1.42
2022-08-03T19:47:36.950Z,1.45
2022-08-03T19:50:24.181Z,1.60
2022-08-03T19:53:13.271Z,1.50
2022-08-03T19:56:04.965Z,1.33
2022-08-03T19:58:55.664Z,1.40
2022-08-03T20:04:38.478Z,1.90
2022-08-03T20:07:27.742Z,1.80
2022-08-03T20:10:16.454Z,1.70
2022-08-03T20:13:03.687Z,1.90
2022-08-03T20:15:53.357Z,1.52
2022-08-03T20:18:41.170Z,2.10
2022-08-03T20:21:32.113Z,2.20
2022-08-03T20:24:26.981Z,2.00
2022-08-03T20:27:20.465Z,2.30
2022-08-03T20:30:08.132Z,2.00
2022-08-03T20:32:55.423Z,2.15
2022-08-03T20:35:45.890Z,2.30
2022-08-03T20:38:43.851Z,2.03
2022-08-03T20:41:34.701Z,2.13
2022-08-03T20:44:25.989Z,2.08
2022-08-03T20:47:14.819Z,2.00
2022-08-03T20:50:11.381Z,2.10
2022-08-03T20:52:59.225Z,2.17
2022-08-03T20:56:01.884Z,1.98
2022-08-03T20:58:51.019Z,2.13
2022-08-03T21:01:38.651Z,2.10
2022-08-03T21:04:25.926Z,2.30
2022-08-03T21:07:18.610Z,1.73
2022-08-03T21:10:13.529Z,1.70
2022-08-03T21:13:04.674Z,1.20
2022-08-03T21:13:16.728Z,1.70
2022-08-03T21:16:14.710Z,1.50
2022-08-03T21:19:04.079Z,1.55
2022-08-03T21:21:58.688Z,1.55
2022-08-03T21:24:50.338Z,1.50
2022-08-03T21:27:40.477Z,1.70
2022-08-03T21:30:32.385Z,1.50
2022-08-03T21:33:20.621Z,1.60
2022-08-03T21:36:10.260Z,1.40
2022-08-03T21:38:59.182Z,1.50
2022-08-03T21:41:46.765Z,1.50
2022-08-03T21:44:34.214Z,1.40
2022-08-03T21:47:23.788Z,1.40
2022-08-03T21:50:13.933Z,1.30
2022-08-03T21:53:01.332Z,1.40
2022-08-03T21:55:57.518Z,1.30
2022-08-03T21:59:06.614Z,1.50
2022-08-03T22:01:58.392Z,1.50
2022-08-03T22:04:55.541Z,1.50
2022-08-03T22:07:44.807Z,1.33
2022-08-03T22:10:32.313Z,1.42
2022-08-03T22:13:43.850Z,1.35
2022-08-03T22:16:30.124Z,1.30
2022-08-03T22:19:17.275Z,1.15
2022-08-03T22:22:07.578Z,1.50
2022-08-03T22:25:04.008Z,1.40
2022-08-03T22:27:54.503Z,1.30
2022-08-03T22:30:42.636Z,1.27
2022-08-03T22:33:30.908Z,1.20
2022-08-03T22:36:22.977Z,1.13
2022-08-03T22:39:10.517Z,1.42
2022-08-03T22:42:01.168Z,1.40
2022-08-03T22:47:43.415Z,1.10
2022-08-03T22:50:34.063Z,1.20
2022-08-03T22:53:22.300Z,1.35
2022-08-03T22:56:10.202Z,1.40
2022-08-03T22:58:59.563Z,1.30
2022-08-03T23:01:47.872Z,1.33
2022-08-03T23:04:39.391Z,1.55
2022-08-03T23:07:38.290Z,1.60
2022-08-03T23:10:26.244Z,1.73
2022-08-03T23:13:17.343Z,1.83
2022-08-03T23:16:07.434Z,1.50
2022-08-03T23:18:54.742Z,1.25
2022-08-03T23:22:00.062Z,1.30
2022-08-03T23:24:53.208Z,1.25
2022-08-03T23:27:42.238Z,1.00
2022-08-03T23:30:31.634Z,1.23
2022-08-03T23:33:20.032Z,1.30
2022-08-03T23:36:31.227Z,1.40
2022-08-03T23:39:17.503Z,1.20
2022-08-03T23:42:05.265Z,1.25
2022-08-03T23:44:55.738Z,1.17
2022-08-03T23:47:46.354Z,1.20
2022-08-03T23:50:45.020Z,1.40
2022-08-03T23:53:51.630Z,1.33
2022-08-03T23:56:45.535Z,1.20
2022-08-03T23:59:40.158Z,1.20
